createdAt,value
2022-11-03T00:02:02.806Z,20.98
2022-11-03T00:04:29.638Z,21.08
2022-11-03T00:06:56.504Z,21.01
2022-11-03T00:09:24.435Z,20.97
2022-11-03T00:11:51.742Z,20.82
2022-11-03T00:14:19.216Z,20.92
2022-11-03T00:16:46.514Z,20.78
2022-11-03T00:19:17.446Z,20.93
2022-11-03T00:21:44.921Z,20.48
2022-11-03T00:24:12.093Z,20.54
2022-11-03T00:26:39.694Z,20.77
2022-11-03T00:29:11.661Z,20.63
2022-11-03T00:31:41.015Z,20.45
2022-11-03T00:34:09.126Z,20.31
2022-11-03T00:36:37.235Z,20.56
2022-11-03T00:39:05.320Z,20.54
2022-11-03T00:41:32.436Z,20.80
2022-11-03T00:43:59.621Z,20.68
2022-11-03T00:46:27.027Z,20.45
2022-11-03T00:48:54.033Z,20.64
2022-11-03T00:51:25.824Z,20.75
2022-11-03T00:53:57.548Z,20.67
2022-11-03T00:56:30.506Z,20.85
2022-11-03T00:58:59.346Z,20.94
2022-11-03T01:01:40.782Z,20.62
2022-11-03T01:04:31.448Z,20.54
2022-11-03T01:07:00.071Z,20.35
2022-11-03T01:09:45.710Z,20.18
2022-11-03T01:12:15.273Z,20.33
2022-11-03T01:14:46.676Z,20.19
2022-11-03T01:17:16.073Z,20.47
2022-11-03T01:19:43.068Z,20.31
2022-11-03T01:22:11.476Z,20.43
2022-11-03T01:24:41.215Z,20.81
2022-11-03T01:27:15.703Z,20.88
2022-11-03T01:29:43.283Z,20.49
2022-11-03T01:32:10.935Z,20.31
2022-11-03T01:34:37.817Z,20.36
2022-11-03T01:37:05.071Z,20.56
2022-11-03T01:39:31.757Z,20.52
2022-11-03T01:41:58.980Z,20.11
2022-11-03T01:44:31.614Z,20.01
2022-11-03T01:47:04.487Z,19.88
2022-11-03T01:50:01.180Z,19.55
2022-11-03T01:52:39.726Z,19.77
2022-11-03T01:55:13.595Z,19.87
2022-11-03T01:57:49.466Z,19.82
2022-11-03T02:00:16.596Z,19.43
2022-11-03T02:02:44.837Z,19.66
2022-11-03T02:05:14.645Z,19.66
2022-11-03T02:07:52.660Z,19.97
2022-11-03T02:10:20.201Z,19.81
2022-11-03T02:12:48.254Z,19.79
2022-11-03T02:15:18.819Z,19.67
2022-11-03T02:17:48.729Z,19.18
2022-11-03T02:20:31.450Z,19.60
2022-11-03T02:23:36.604Z,19.76
2022-11-03T02:26:03.532Z,19.23
2022-11-03T02:28:32.499Z,19.45
2022-11-03T02:31:42.895Z,19.45
2022-11-03T02:34:37.370Z,19.46
2022-11-03T02:37:27.471Z,19.68
2022-11-03T02:40:15.521Z,19.55
2022-11-03T02:42:46.740Z,19.27
2022-11-03T02:45:17.723Z,19.52
2022-11-03T02:47:46.477Z,19.75
2022-11-03T02:50:13.573Z,19.84
2022-11-03T02:52:46.737Z,19.55
2022-11-03T02:55:23.055Z,19.85
2022-11-03T02:58:01.956Z,19.49
2022-11-03T03:00:31.550Z,19.49
2022-11-03T03:03:30.642Z,19.63
2022-11-03T03:06:08.460Z,19.73
2022-11-03T03:08:39.510Z,19.85
2022-11-03T03:11:08.122Z,19.57
2022-11-03T03:13:34.991Z,19.74
2022-11-03T03:16:27.992Z,19.60
2022-11-03T03:19:08.792Z,19.37
2022-11-03T03:21:43.647Z,19.23
2022-11-03T03:24:31.390Z,18.99
2022-11-03T03:27:03.972Z,19.26
2022-11-03T03:29:38.279Z,19.23
2022-11-03T03:32:09.880Z,19.09
2022-11-03T03:34:41.323Z,19.12
2022-11-03T03:37:10.950Z,19.17
2022-11-03T03:39:40.697Z,18.94
2022-11-03T03:42:10.794Z,19.32
2022-11-03T03:44:40.243Z,18.96
2022-11-03T03:47:12.425Z,19.40
2022-11-03T03:49:39.366Z,18.97
2022-11-03T03:52:09.345Z,19.28
2022-11-03T03:54:36.819Z,19.00
2022-11-03T03:57:06.750Z,19.33
2022-11-03T03:59:33.522Z,19.08
2022-11-03T04:02:00.604Z,19.34
2022-11-03T04:04:27.371Z,19.04
2022-11-03T04:07:14.124Z,18.52
2022-11-03T04:09:40.858Z,19.45
2022-11-03T04:12:27.513Z,19.11
2022-11-03T04:15:12.918Z,19.39
2022-11-03T04:18:04.830Z,19.60
2022-11-03T04:20:50.914Z,19.48
2022-11-03T04:23:18.533Z,19.50
2022-11-03T04:25:51.905Z,19.47
2022-11-03T04:28:18.830Z,19.43
2022-11-03T04:30:45.593Z,19.25
2022-11-03T04:33:16.164Z,19.06
2022-11-03T04:35:46.657Z,19.10
2022-11-03T04:38:13.290Z,18.85
2022-11-03T04:40:49.048Z,18.88
2022-11-03T04:43:21.165Z,18.83
2022-11-03T04:45:49.385Z,18.79
2022-11-03T04:48:23.378Z,18.83
2022-11-03T04:50:54.132Z,18.80
2022-11-03T04:53:22.372Z,18.52
2022-11-03T04:55:54.274Z,18.48
2022-11-03T04:58:26.538Z,18.09
2022-11-03T05:00:59.525Z,18.31
2022-11-03T05:03:30.270Z,18.28
2022-11-03T05:05:57.800Z,18.15
2022-11-03T05:08:25.012Z,18.37
2022-11-03T05:10:52.375Z,18.09
2022-11-03T05:13:22.984Z,18.21
2022-11-03T05:15:52.950Z,18.33
2022-11-03T05:18:31.240Z,18.47
2022-11-03T05:21:03.799Z,18.27
2022-11-03T05:23:37.218Z,18.02
2022-11-03T05:26:05.782Z,18.15
2022-11-03T05:28:38.038Z,17.55
2022-11-03T05:31:32.298Z,17.89
2022-11-03T05:34:01.675Z,18.00
2022-11-03T05:36:31.014Z,18.06
2022-11-03T05:39:38.109Z,17.89
2022-11-03T05:42:30.659Z,17.70
2022-11-03T05:44:58.721Z,18.06
2022-11-03T05:47:37.451Z,18.45
2022-11-03T05:50:20.386Z,18.56
2022-11-03T05:52:49.722Z,18.36
2022-11-03T05:55:27.140Z,18.50
2022-11-03T05:57:56.674Z,18.42
2022-11-03T06:00:29.922Z,18.43
2022-11-03T06:02:58.116Z,18.43
2022-11-03T06:05:26.236Z,18.44
2022-11-03T06:07:55.661Z,18.51
2022-11-03T06:10:35.965Z,18.49
2022-11-03T06:13:11.559Z,18.41
2022-11-03T06:15:38.378Z,18.07
2022-11-03T06:18:22.268Z,18.13
2022-11-03T06:20:52.569Z,16.94
2022-11-03T06:23:20.849Z,16.96
2022-11-03T06:25:48.924Z,17.14
2022-11-03T06:28:21.701Z,17.76
2022-11-03T06:30:49.090Z,17.31
2022-11-03T06:33:19.190Z,17.49
2022-11-03T06:35:46.243Z,17.33
2022-11-03T06:38:19.626Z,18.19
2022-11-03T06:40:50.778Z,18.50
2022-11-03T06:43:28.920Z,18.27
2022-11-03T06:46:01.126Z,18.66
2022-11-03T06:48:29.741Z,18.71
2022-11-03T06:50:58.238Z,18.49
2022-11-03T06:53:32.024Z,18.40
2022-11-03T06:55:59.985Z,18.63
2022-11-03T06:58:36.762Z,18.30
2022-11-03T07:01:14.713Z,18.28
2022-11-03T07:03:42.004Z,18.57
2022-11-03T07:06:11.493Z,18.56
2022-11-03T07:08:44.412Z,18.54
2022-11-03T07:11:14.264Z,19.30
2022-11-03T07:13:41.795Z,19.18
2022-11-03T07:16:28.747Z,18.95
2022-11-03T07:18:59.138Z,19.37
2022-11-03T07:21:38.117Z,19.34
2022-11-03T07:24:31.979Z,19.94
2022-11-03T07:27:13.561Z,19.73
2022-11-03T07:29:41.045Z,19.81
2022-11-03T07:32:19.905Z,20.15
2022-11-03T07:34:49.286Z,20.51
2022-11-03T07:37:23.192Z,19.81
2022-11-03T07:39:51.220Z,19.83
2022-11-03T07:42:39.808Z,20.03
2022-11-03T07:45:44.075Z,20.33
2022-11-03T07:48:56.757Z,19.85
2022-11-03T07:51:33.193Z,19.77
2022-11-03T07:54:12.737Z,19.88
2022-11-03T07:56:43.154Z,20.71
2022-11-03T07:59:09.987Z,20.63
2022-11-03T08:01:40.349Z,21.02
2022-11-03T08:04:10.953Z,21.05
2022-11-03T08:06:37.662Z,20.94
2022-11-03T08:09:05.330Z,21.03
2022-11-03T08:11:32.032Z,21.28
2022-11-03T08:13:58.824Z,21.02
2022-11-03T08:16:25.561Z,21.38
2022-11-03T08:18:52.446Z,21.32
2022-11-03T08:21:19.140Z,21.43
2022-11-03T08:23:47.592Z,21.60
2022-11-03T08:26:15.755Z,21.79
2022-11-03T08:28:42.766Z,21.83
2022-11-03T08:31:13.052Z,22.17
2022-11-03T08:33:41.044Z,21.89
2022-11-03T08:36:08.733Z,22.43
2022-11-03T08:38:36.026Z,21.82
2022-11-03T08:41:03.030Z,22.57
2022-11-03T08:43:30.410Z,22.37
2022-11-03T08:46:03.437Z,23.00
2022-11-03T08:48:33.537Z,21.88
2022-11-03T08:51:00.292Z,22.54
2022-11-03T08:53:27.438Z,22.82
2022-11-03T08:55:54.723Z,22.56
2022-11-03T08:58:22.843Z,23.27
2022-11-03T09:00:50.056Z,23.60
2022-11-03T09:03:17.476Z,22.51
2022-11-03T09:05:44.409Z,23.44
2022-11-03T09:10:58.720Z,22.65
2022-11-03T09:13:25.602Z,22.33
2022-11-03T09:15:53.452Z,23.47
2022-11-03T09:18:20.309Z,24.11
2022-11-03T09:20:47.079Z,24.07
2022-11-03T09:23:13.898Z,23.90
2022-11-03T09:25:40.991Z,23.82
2022-11-03T09:28:07.999Z,23.94
2022-11-03T09:30:35.034Z,23.57
2022-11-03T09:33:01.975Z,24.52
2022-11-03T09:35:28.777Z,24.10
2022-11-03T09:37:55.435Z,24.89
2022-11-03T09:40:22.293Z,24.61
2022-11-03T09:42:49.439Z,24.37
2022-11-03T09:45:16.280Z,24.62
2022-11-03T09:47:45.878Z,24.58
2022-11-03T09:50:19.361Z,24.63
2022-11-03T09:52:52.023Z,24.56
2022-11-03T09:55:25.596Z,24.44
2022-11-03T09:57:54.522Z,24.52
2022-11-03T10:00:23.871Z,24.30
2022-11-03T10:02:50.947Z,24.59
2022-11-03T10:05:24.046Z,24.40
2022-11-03T10:10:21.765Z,24.45
2022-11-03T10:12:49.850Z,25.03
2022-11-03T10:15:18.945Z,25.56
2022-11-03T10:17:46.898Z,25.28
2022-11-03T10:20:17.318Z,25.05
2022-11-03T10:22:46.894Z,24.61
2022-11-03T10:25:36.211Z,25.23
2022-11-03T10:28:25.112Z,25.34
2022-11-03T10:31:13.036Z,25.70
2022-11-03T10:33:53.070Z,25.30
2022-11-03T10:36:22.900Z,25.53
2022-11-03T10:38:50.104Z,25.60
2022-11-03T10:41:18.088Z,24.80
2022-11-03T10:43:59.747Z,24.93
2022-11-03T10:46:48.974Z,24.95
2022-11-03T10:49:17.198Z,25.18
2022-11-03T10:51:47.607Z,24.90
2022-11-03T10:54:19.791Z,24.21
2022-11-03T10:56:48.176Z,24.97
2022-11-03T10:59:24.491Z,25.56
2022-11-03T11:01:51.583Z,25.63
2022-11-03T11:04:20.143Z,25.90
2022-11-03T11:06:47.597Z,25.73
2022-11-03T11:09:27.186Z,25.74
2022-11-03T11:12:06.388Z,25.84
2022-11-03T11:14:39.285Z,26.00
2022-11-03T11:17:32.207Z,25.92
2022-11-03T11:20:24.085Z,25.97
2022-11-03T11:22:51.354Z,26.11
2022-11-03T11:25:19.033Z,25.59
2022-11-03T11:27:45.673Z,25.85
2022-11-03T11:30:18.568Z,26.11
2022-11-03T11:32:45.422Z,26.42
2022-11-03T11:35:16.922Z,26.35
2022-11-03T11:37:44.275Z,26.48
2022-11-03T11:40:34.462Z,26.40
2022-11-03T11:43:01.369Z,26.63
2022-11-03T11:46:05.426Z,27.70
2022-11-03T11:48:33.263Z,28.18
2022-11-03T11:51:01.691Z,28.15
2022-11-03T11:53:33.802Z,28.34
2022-11-03T11:56:02.721Z,28.75
2022-11-03T11:58:42.451Z,29.26
2022-11-03T12:01:24.822Z,29.26
2022-11-03T12:03:54.651Z,29.81
2022-11-03T12:06:34.110Z,30.58
2022-11-03T12:09:09.429Z,30.88
2022-11-03T12:11:46.546Z,31.27
2022-11-03T12:14:40.887Z,31.03
2022-11-03T12:17:16.959Z,31.61
2022-11-03T12:19:45.952Z,32.17
2022-11-03T12:22:40.061Z,32.26
2022-11-03T12:25:35.085Z,32.44
2022-11-03T12:28:02.503Z,31.67
2022-11-03T12:30:29.205Z,32.03
2022-11-03T12:32:57.849Z,33.10
2022-11-03T12:35:24.630Z,32.87
2022-11-03T12:37:51.410Z,33.46
2022-11-03T12:40:18.381Z,33.94
2022-11-03T12:42:45.784Z,32.77
2022-11-03T12:45:13.878Z,33.71
2022-11-03T12:47:40.901Z,34.36
2022-11-03T12:50:07.897Z,34.20
2022-11-03T12:52:34.643Z,33.24
2022-11-03T12:55:01.499Z,33.50
2022-11-03T12:57:28.160Z,34.04
2022-11-03T12:59:54.989Z,34.16
2022-11-03T13:02:21.857Z,35.11
2022-11-03T13:04:48.959Z,34.55
2022-11-03T13:07:18.143Z,34.79
2022-11-03T13:09:49.120Z,34.81
2022-11-03T13:12:35.234Z,34.92
2022-11-03T13:15:05.342Z,34.04
2022-11-03T13:17:52.044Z,33.65
2022-11-03T13:20:19.360Z,33.96
2022-11-03T13:22:46.013Z,33.78
2022-11-03T13:25:12.908Z,33.94
2022-11-03T13:27:39.644Z,33.40
2022-11-03T13:30:07.488Z,33.62
2022-11-03T13:32:34.704Z,33.36
2022-11-03T13:35:02.129Z,33.24
2022-11-03T13:37:28.856Z,32.97
2022-11-03T13:39:55.649Z,32.72
2022-11-03T13:42:22.781Z,32.40
2022-11-03T13:44:49.673Z,32.26
2022-11-03T13:47:16.507Z,32.33
2022-11-03T13:50:12.257Z,31.30
2022-11-03T13:52:31.345Z,30.49
2022-11-03T14:00:31.935Z,29.70
2022-11-03T14:05:45.701Z,28.82
2022-11-03T14:08:12.576Z,28.28
2022-11-03T14:10:39.538Z,28.14
2022-11-03T14:13:06.568Z,28.08
2022-11-03T14:15:34.689Z,27.90
2022-11-03T14:18:01.541Z,27.68
2022-11-03T14:23:01.413Z,26.81
2022-11-03T14:25:28.220Z,26.63
2022-11-03T14:27:55.155Z,26.97
2022-11-03T14:30:21.950Z,26.99
2022-11-03T14:32:48.777Z,27.11
2022-11-03T14:35:15.735Z,26.98
2022-11-03T14:37:42.623Z,26.97
2022-11-03T14:40:30.057Z,26.94
2022-11-03T14:42:56.893Z,26.82
2022-11-03T14:45:23.654Z,26.87
2022-11-03T14:47:52.850Z,26.43
2022-11-03T14:50:19.658Z,26.48
2022-11-03T14:52:46.454Z,26.49
2022-11-03T14:55:13.226Z,26.29
2022-11-03T14:57:40.115Z,26.35
2022-11-03T15:00:07.731Z,26.38
2022-11-03T15:02:34.605Z,26.33
2022-11-03T15:05:01.373Z,25.37
2022-11-03T15:07:28.241Z,24.85
2022-11-03T15:09:55.261Z,24.45
2022-11-03T15:12:22.105Z,24.51
2022-11-03T15:14:48.785Z,24.23
2022-11-03T15:17:15.692Z,24.44
2022-11-03T15:19:42.456Z,24.40
2022-11-03T15:22:09.658Z,24.32
2022-11-03T15:27:23.307Z,23.86
2022-11-03T15:29:50.090Z,23.67
2022-11-03T15:32:16.888Z,23.55
2022-11-03T15:34:43.598Z,23.61
2022-11-03T15:37:10.626Z,23.55
2022-11-03T15:39:37.363Z,23.07
2022-11-03T15:42:04.787Z,23.05
2022-11-03T15:44:31.472Z,23.09
2022-11-03T15:46:58.165Z,22.59
2022-11-03T15:49:25.344Z,22.77
2022-11-03T15:51:52.063Z,22.51
2022-11-03T15:54:18.767Z,22.95
2022-11-03T15:56:46.536Z,22.93
2022-11-03T15:59:13.262Z,23.10
2022-11-03T16:01:43.694Z,23.12
2022-11-03T16:04:11.070Z,23.09
2022-11-03T16:07:06.288Z,23.10
2022-11-03T16:09:24.696Z,23.13
2022-11-03T16:11:51.459Z,22.96
2022-11-03T16:14:18.862Z,23.29
2022-11-03T16:16:45.713Z,23.16
2022-11-03T16:19:12.378Z,22.89
2022-11-03T16:21:39.193Z,23.16
2022-11-03T16:24:06.188Z,23.20
2022-11-03T16:26:33.371Z,23.22
2022-11-03T16:29:00.714Z,23.16
2022-11-03T16:31:27.728Z,23.09
2022-11-03T16:33:54.422Z,23.10
2022-11-03T16:36:21.089Z,23.13
2022-11-03T16:38:48.427Z,22.90
2022-11-03T16:41:15.162Z,23.00
2022-11-03T16:43:41.949Z,22.87
2022-11-03T16:46:08.815Z,23.04
2022-11-03T16:48:36.026Z,23.10
2022-11-03T16:51:02.742Z,22.67
2022-11-03T16:53:29.925Z,22.57
2022-11-03T16:55:56.665Z,22.63
2022-11-03T16:58:24.073Z,22.92
2022-11-03T17:00:51.722Z,22.69
2022-11-03T17:03:18.924Z,22.79
2022-11-03T17:05:46.423Z,22.81
2022-11-03T17:08:46.340Z,22.57
2022-11-03T17:11:01.472Z,22.60
2022-11-03T17:13:30.175Z,22.56
2022-11-03T17:15:57.354Z,22.65
2022-11-03T17:18:24.815Z,22.64
2022-11-03T17:20:52.176Z,22.54
2022-11-03T17:23:19.262Z,22.28
2022-11-03T17:25:46.274Z,22.25
2022-11-03T17:28:14.674Z,22.55
2022-11-03T17:30:41.593Z,22.48
2022-11-03T17:33:13.092Z,22.36
2022-11-03T17:35:42.478Z,22.07
2022-11-03T17:38:15.632Z,21.95
2022-11-03T17:40:44.751Z,21.87
2022-11-03T17:43:21.661Z,21.93
2022-11-03T17:45:48.833Z,21.98
2022-11-03T17:48:15.859Z,21.83
2022-11-03T17:50:47.152Z,21.73
2022-11-03T17:53:26.938Z,21.86
2022-11-03T17:56:23.407Z,21.34
2022-11-03T17:58:46.463Z,21.20
2022-11-03T18:01:22.049Z,21.52
2022-11-03T18:03:49.282Z,21.42
2022-11-03T18:06:19.367Z,21.41
2022-11-03T18:08:47.521Z,21.09
2022-11-03T18:11:43.972Z,21.42
2022-11-03T18:14:10.856Z,21.23
2022-11-03T18:16:37.775Z,21.20
2022-11-03T18:19:04.549Z,21.15
2022-11-03T18:21:31.510Z,21.20
2022-11-03T18:23:58.877Z,21.07
2022-11-03T18:26:26.711Z,21.07
2022-11-03T18:28:54.239Z,21.07
2022-11-03T18:31:24.646Z,21.14
2022-11-03T18:33:52.219Z,21.07
2022-11-03T18:36:19.611Z,21.13
2022-11-03T18:38:48.423Z,20.83
2022-11-03T18:41:36.095Z,21.02
2022-11-03T18:44:30.253Z,20.96
2022-11-03T18:46:58.246Z,21.05
2022-11-03T18:49:27.224Z,20.92
2022-11-03T18:52:03.892Z,20.92
2022-11-03T18:54:32.791Z,20.88
2022-11-03T18:57:00.307Z,20.78
2022-11-03T18:59:32.140Z,20.62
2022-11-03T19:01:59.524Z,20.68
2022-11-03T19:04:26.380Z,20.77
2022-11-03T19:06:53.268Z,20.83
2022-11-03T19:09:26.222Z,20.71
2022-11-03T19:11:56.398Z,20.64
2022-11-03T19:14:28.754Z,20.84
2022-11-03T19:19:47.023Z,20.75
2022-11-03T19:22:16.355Z,20.58
2022-11-03T19:24:44.362Z,20.71
2022-11-03T19:27:32.521Z,20.64
2022-11-03T19:30:00.364Z,20.62
2022-11-03T19:32:31.266Z,20.68
2022-11-03T19:35:18.385Z,20.71
2022-11-03T19:37:46.711Z,20.64
2022-11-03T19:40:16.909Z,20.53
2022-11-03T19:42:45.080Z,20.57
2022-11-03T19:45:17.520Z,20.61
2022-11-03T19:48:18.314Z,20.67
2022-11-03T19:50:44.244Z,20.47
2022-11-03T19:53:19.211Z,20.34
2022-11-03T19:55:46.440Z,20.30
2022-11-03T19:58:16.219Z,20.45
2022-11-03T20:00:44.265Z,20.33
2022-11-03T20:03:11.928Z,20.51
2022-11-03T20:05:39.651Z,20.18
2022-11-03T20:08:11.672Z,20.16
2022-11-03T20:10:39.017Z,19.67
2022-11-03T20:13:08.251Z,19.91
2022-11-03T20:15:35.662Z,20.02
2022-11-03T20:18:03.840Z,19.67
2022-11-03T20:20:35.611Z,19.41
2022-11-03T20:23:04.451Z,19.42
2022-11-03T20:25:35.060Z,19.32
2022-11-03T20:28:15.830Z,19.50
2022-11-03T20:30:42.707Z,19.16
2022-11-03T20:33:17.685Z,19.48
2022-11-03T20:35:47.083Z,19.38
2022-11-03T20:38:17.253Z,19.67
2022-11-03T20:40:44.067Z,19.49
2022-11-03T20:43:33.068Z,19.61
2022-11-03T20:46:00.996Z,19.63
2022-11-03T20:48:28.195Z,19.68
2022-11-03T20:50:55.680Z,19.61
2022-11-03T20:53:24.329Z,19.62
2022-11-03T20:55:52.107Z,19.66
2022-11-03T20:58:19.376Z,19.75
2022-11-03T21:00:48.122Z,19.62
2022-11-03T21:03:53.613Z,19.67
2022-11-03T21:06:18.028Z,19.65
2022-11-03T21:08:46.321Z,19.53
2022-11-03T21:11:24.132Z,19.50
2022-11-03T21:14:14.099Z,19.62
2022-11-03T21:17:00.314Z,19.60
2022-11-03T21:19:48.609Z,19.65
2022-11-03T21:22:45.808Z,19.16
2022-11-03T21:25:06.550Z,19.19
2022-11-03T21:27:39.305Z,19.38
2022-11-03T21:30:11.837Z,19.60
2022-11-03T21:32:38.717Z,19.30
2022-11-03T21:35:06.856Z,18.76
2022-11-03T21:37:33.605Z,18.58
2022-11-03T21:40:00.316Z,18.92
2022-11-03T21:42:45.701Z,19.14
2022-11-03T21:45:13.429Z,19.11
2022-11-03T21:48:00.447Z,18.95
2022-11-03T21:50:27.350Z,19.20
2022-11-03T21:52:55.201Z,19.15
2022-11-03T21:55:22.113Z,19.20
2022-11-03T21:57:48.840Z,19.05
2022-11-03T22:00:17.169Z,19.14
2022-11-03T22:02:44.913Z,19.10
2022-11-03T22:05:11.790Z,19.16
2022-11-03T22:07:38.656Z,18.83
2022-11-03T22:10:05.964Z,19.09
2022-11-03T22:12:32.872Z,19.06
2022-11-03T22:15:18.209Z,19.10
2022-11-03T22:17:45.150Z,18.82
2022-11-03T22:20:30.534Z,19.15
2022-11-03T22:23:19.013Z,18.67
2022-11-03T22:26:06.068Z,18.88
2022-11-03T22:28:33.018Z,18.52
2022-11-03T22:31:22.217Z,18.72
2022-11-03T22:34:07.477Z,18.90
2022-11-03T22:36:34.358Z,18.95
2022-11-03T22:39:20.325Z,18.84
2022-11-03T22:42:06.756Z,18.78
2022-11-03T22:44:52.451Z,18.68
2022-11-03T22:47:19.440Z,18.68
2022-11-03T22:49:46.258Z,18.49
2022-11-03T22:52:13.090Z,18.31
2022-11-03T22:54:39.876Z,18.55
2022-11-03T22:57:11.249Z,18.10
2022-11-03T22:59:38.165Z,18.25
2022-11-03T23:02:05.100Z,17.94
2022-11-03T23:04:32.151Z,17.97
2022-11-03T23:06:58.824Z,18.14
2022-11-03T23:09:25.692Z,18.36
2022-11-03T23:11:52.389Z,18.22
2022-11-03T23:14:20.960Z,17.69
2022-11-03T23:16:47.734Z,17.95
2022-11-03T23:19:34.313Z,17.95
2022-11-03T23:22:01.791Z,18.06
2022-11-03T23:24:47.489Z,18.24
2022-11-03T23:27:14.523Z,17.59
2022-11-03T23:29:41.391Z,17.69
2022-11-03T23:32:08.522Z,17.64
2022-11-03T23:34:35.635Z,17.99
2022-11-03T23:37:03.354Z,18.00
2022-11-03T23:39:30.340Z,18.06
2022-11-03T23:41:57.166Z,17.89
2022-11-03T23:44:24.140Z,17.47
2022-11-03T23:47:09.586Z,17.60
2022-11-03T23:49:36.473Z,17.84
2022-11-03T23:52:03.260Z,17.99
2022-11-03T23:54:30.161Z,17.85
2022-11-03T23:57:15.519Z,17.37
2022-11-03T23:59:42.490Z,17.67
